Oakwood, Ohio
Current Conditions -  °F | °C
As of 6:53 AM on Friday 31 Oct 2014 (Local Time) from KDFI Reporting Station
Overcast Overcast  
Wind Chill: 40°   Ceiling: 3900
Heat Index: 43°   Visibility: 10mi
Dew Point: 37°   Wind: 5mph
Humidity: 80%   Direction: 210°SSW
Pressure: 29.93"   Gusts: NA
Location:  41.1°N, 84.38°W
Report Text: KDFI 311053Z AUTO 21004KT 10SM BKN039 OVC046 06/03 A2993 RMK AO2 SLP140 T00610028 $
Loading
Personal Weather Stations






























Interactive Weather Map New forecast layout! Learn more

10-Day Weather Forecast

Advertisements
Track Severe Weather on mobile